Time,TemperatureF,DewpointF,PressureIn,WindDirection,WindDirectionDegrees,WindSpeedMPH,WindSpeedGustMPH,Humidity,HourlyPrecipIn,Conditions,Clouds,dailyrainin,SoftwareType,DateUTC
2013-02-11 07:34:00,60.1,59.0,30.17,SSW,210,0.0,1.0,96,0.00,,,0.37,weatherlink.com 1.10,2013-02-11 12:34:00,
2013-02-11 07:49:00,60.5,59.0,30.18,NE,39,0.0,3.0,95,0.01,,,0.38,weatherlink.com 1.10,2013-02-11 12:49:00,
2013-02-11 08:04:00,60.4,59.0,30.17,SSW,212,0.0,2.0,96,0.01,,,0.38,weatherlink.com 1.10,2013-02-11 13:04:00,
2013-02-11 08:19:00,60.4,59.0,30.17,SSW,203,0.0,4.0,96,0.02,,,0.39,weatherlink.com 1.10,2013-02-11 13:19:00,
2013-02-11 08:34:00,60.5,59.0,30.15,SSE,150,2.0,4.0,96,0.02,,,0.39,weatherlink.com 1.10,2013-02-11 13:34:00,
2013-02-11 08:49:00,60.6,60.0,30.16,SSE,165,0.0,1.0,96,0.02,,,0.40,weatherlink.com 1.10,2013-02-11 13:49:00,
2013-02-11 09:04:00,60.6,59.0,30.16,SSE,163,2.0,4.0,95,0.02,,,0.40,weatherlink.com 1.10,2013-02-11 14:04:00,
2013-02-11 09:19:00,61.2,60.0,30.15,SW,214,1.0,3.0,95,0.01,,,0.40,weatherlink.com 1.10,2013-02-11 14:19:00,
2013-02-11 09:34:00,61.4,60.0,30.16,SSE,160,1.0,2.0,94,0.01,,,0.40,weatherlink.com 1.10,2013-02-11 14:34:00,
2013-02-11 09:50:00,61.5,60.0,30.15,South,191,1.0,5.0,94,0.00,,,0.40,weatherlink.com 1.10,2013-02-11 14:50:00,
2013-02-11 10:05:00,62.1,60.0,30.15,SW,221,1.0,4.0,93,0.00,,,0.40,weatherlink.com 1.10,2013-02-11 15:05:00,
2013-02-11 10:20:00,62.6,60.0,30.15,SSW,207,2.0,3.0,92,0.00,,,0.40,weatherlink.com 1.10,2013-02-11 15:20:00,
2013-02-11 10:35:00,62.7,60.0,30.15,WSW,248,1.0,4.0,92,0.00,,,0.40,weatherlink.com 1.10,2013-02-11 15:35:00,
2013-02-11 10:50:00,62.5,60.0,30.15,SW,215,1.0,7.0,91,0.00,,,0.40,weatherlink.com 1.10,2013-02-11 15:50:00,
2013-02-11 11:05:00,62.5,60.0,30.16,SW,215,4.0,6.0,91,0.01,,,0.41,weatherlink.com 1.10,2013-02-11 16:05:00,
2013-02-11 11:20:00,62.5,60.0,30.17,WNW,301,3.0,6.0,91,0.01,,,0.41,weatherlink.com 1.10,2013-02-11 16:20:00,
2013-02-11 11:35:00,62.6,60.0,30.17,North,354,3.0,7.0,91,0.01,,,0.41,weatherlink.com 1.10,2013-02-11 16:35:00,
2013-02-11 11:50:00,62.8,61.0,30.16,NW,325,0.0,3.0,92,0.00,,,0.41,weatherlink.com 1.10,2013-02-11 16:50:00,
2013-02-11 12:05:00,63.0,61.0,30.16,NW,316,0.0,4.0,93,0.00,,,0.41,weatherlink.com 1.10,2013-02-11 17:05:00,
2013-02-11 12:20:00,63.7,62.0,30.14,SE,127,0.0,2.0,93,0.00,,,0.41,weatherlink.com 1.10,2013-02-11 17:20:00,
2013-02-11 12:35:00,64.6,62.0,30.13,SSE,167,1.0,4.0,92,0.00,,,0.41,weatherlink.com 1.10,2013-02-11 17:35:00,
2013-02-11 12:50:00,64.3,62.0,30.11,SSE,166,1.0,3.0,91,0.00,,,0.41,weatherlink.com 1.10,2013-02-11 17:50:00,
2013-02-11 13:05:00,64.0,61.0,30.10,SSE,156,0.0,2.0,91,0.00,,,0.41,weatherlink.com 1.10,2013-02-11 18:05:00,
2013-02-11 13:20:00,64.3,61.0,30.10,SSE,165,0.0,1.0,90,0.00,,,0.41,weatherlink.com 1.10,2013-02-11 18:20:00,
2013-02-11 13:35:00,64.3,61.0,30.09,West,276,1.0,2.0,90,0.00,,,0.41,weatherlink.com 1.10,2013-02-11 18:35:00,
2013-02-11 13:50:00,65.0,62.0,30.09,WSW,248,0.0,1.0,90,0.00,,,0.41,weatherlink.com 1.10,2013-02-11 18:50:00,
2013-02-11 14:05:00,65.7,62.0,30.08,SW,235,1.0,5.0,89,0.00,,,0.41,weatherlink.com 1.10,2013-02-11 19:05:00,
2013-02-11 14:20:00,65.7,62.0,30.08,SW,233,2.0,3.0,88,0.00,,,0.41,weatherlink.com 1.10,2013-02-11 19:20:00,
2013-02-11 14:35:00,65.2,61.0,30.07,South,184,4.0,5.0,86,0.00,,,0.41,weatherlink.com 1.10,2013-02-11 19:35:00,
2013-02-11 14:50:00,64.8,61.0,30.07,WSW,245,1.0,4.0,87,0.00,,,0.41,weatherlink.com 1.10,2013-02-11 19:50:00,
2013-02-11 15:05:00,65.1,62.0,30.07,SW,226,0.0,2.0,88,0.00,,,0.41,weatherlink.com 1.10,2013-02-11 20:05:00,
2013-02-11 15:20:00,65.5,61.0,30.07,West,277,0.0,2.0,86,0.00,,,0.41,weatherlink.com 1.10,2013-02-11 20:20:00,
2013-02-11 15:35:00,65.0,61.0,30.08,WSW,246,1.0,4.0,87,0.00,,,0.41,weatherlink.com 1.10,2013-02-11 20:35:00,
2013-02-11 15:50:00,64.7,61.0,30.08,West,274,6.0,6.0,88,0.00,,,0.41,weatherlink.com 1.10,2013-02-11 20:50:00,
2013-02-11 16:05:00,64.6,61.0,30.08,WSW,241,3.0,7.0,88,0.00,,,0.41,weatherlink.com 1.10,2013-02-11 21:05:00,
2013-02-11 16:20:00,64.7,61.0,30.08,West,264,0.0,5.0,88,0.00,,,0.41,weatherlink.com 1.10,2013-02-11 21:20:00,
2013-02-11 16:35:00,64.8,62.0,30.08,WSW,257,0.0,2.0,89,0.00,,,0.41,weatherlink.com 1.10,2013-02-11 21:35:00,
2013-02-11 16:50:00,65.0,62.0,30.08,SW,232,0.0,1.0,89,0.00,,,0.41,weatherlink.com 1.10,2013-02-11 21:50:00,
2013-02-11 17:05:00,65.0,62.0,30.07,SSE,162,0.0,2.0,89,0.00,,,0.41,weatherlink.com 1.10,2013-02-11 22:05:00,
2013-02-11 17:20:00,64.4,61.0,30.06,SSE,155,1.0,3.0,89,0.00,,,0.41,weatherlink.com 1.10,2013-02-11 22:20:00,
2013-02-11 17:35:00,64.1,61.0,30.07,SSE,155,0.0,1.0,90,0.00,,,0.41,weatherlink.com 1.10,2013-02-11 22:35:00,
2013-02-11 17:50:00,63.9,61.0,30.07,SSE,163,1.0,1.0,91,0.00,,,0.41,weatherlink.com 1.10,2013-02-11 22:50:00,
2013-02-11 18:05:00,64.0,61.0,30.07,WSW,249,0.0,1.0,91,0.00,,,0.41,weatherlink.com 1.10,2013-02-11 23:05:00,
2013-02-11 18:20:00,63.7,61.0,30.07,West,281,0.0,1.0,91,0.00,,,0.41,weatherlink.com 1.10,2013-02-11 23:20:00,
2013-02-11 18:35:00,63.4,61.0,30.08,West,281,0.0,0.0,93,0.00,,,0.41,weatherlink.com 1.10,2013-02-11 23:35:00,
2013-02-11 18:50:00,63.0,61.0,30.09,West,281,0.0,0.0,93,0.00,,,0.41,weatherlink.com 1.10,2013-02-11 23:50:00,
2013-02-11 19:20:00,63.2,62.0,30.09,NW,307,2.0,3.0,94,0.03,,,0.44,weatherlink.com 1.10,2013-02-12 00:20:00,
2013-02-11 19:50:00,62.4,61.0,30.10,NW,309,4.0,6.0,95,0.14,,,0.55,weatherlink.com 1.10,2013-02-12 00:50:00,
2013-02-11 20:05:00,62.0,61.0,30.10,NNW,338,3.0,5.0,95,0.17,,,0.59,weatherlink.com 1.10,2013-02-12 01:05:00,
2013-02-11 20:20:00,61.8,60.0,30.09,NW,309,0.0,4.0,95,0.16,,,0.60,weatherlink.com 1.10,2013-02-12 01:20:00,
2013-02-11 20:35:00,61.6,60.0,30.09,NNE,26,0.0,1.0,95,0.09,,,0.60,weatherlink.com 1.10,2013-02-12 01:35:00,
2013-02-11 20:50:00,61.5,60.0,30.10,NNE,26,1.0,1.0,96,0.04,,,0.60,weatherlink.com 1.10,2013-02-12 01:50:00,
2013-02-11 21:05:00,61.3,60.0,30.09,NW,323,1.0,3.0,96,0.04,,,0.63,weatherlink.com 1.10,2013-02-12 02:05:00,
2013-02-11 21:20:00,61.2,60.0,30.09,NW,314,5.0,7.0,96,0.04,,,0.64,weatherlink.com 1.10,2013-02-12 02:20:00,
2013-02-11 21:35:00,60.4,59.0,30.10,NW,314,2.0,6.0,95,0.12,,,0.72,weatherlink.com 1.10,2013-02-12 02:35:00,
2013-02-11 21:50:00,60.3,59.0,30.08,NNE,19,0.0,5.0,95,0.14,,,0.74,weatherlink.com 1.10,2013-02-12 02:50:00,
2013-02-11 22:05:00,60.3,59.0,30.07,NE,44,0.0,1.0,96,0.13,,,0.76,weatherlink.com 1.10,2013-02-12 03:05:00,
2013-02-11 22:20:00,60.1,59.0,30.09,WNW,285,2.0,4.0,96,0.12,,,0.76,weatherlink.com 1.10,2013-02-12 03:20:00,
2013-02-11 22:35:00,59.7,58.0,30.09,WNW,291,0.0,2.0,95,0.06,,,0.78,weatherlink.com 1.10,2013-02-12 03:35:00,
2013-02-11 22:50:00,59.7,59.0,30.08,SSE,154,1.0,2.0,96,0.08,,,0.82,weatherlink.com 1.10,2013-02-12 03:50:00,
2013-02-11 23:05:00,59.7,59.0,30.10,SSE,156,1.0,1.0,96,0.08,,,0.84,weatherlink.com 1.10,2013-02-12 04:05:00,
2013-02-11 23:21:00,59.5,58.0,30.09,SSE,156,1.0,2.0,96,0.12,,,0.88,weatherlink.com 1.10,2013-02-12 04:21:00,
2013-02-11 23:36:00,59.7,59.0,30.10,SSE,165,0.0,3.0,96,0.13,,,0.91,weatherlink.com 1.10,2013-02-12 04:36:00,